sensor_id;sensor_type;location;lat;lon;timestamp;pressure;altitude;pressure_sealevel;temperature;humidity
76732;BME280;65656;51.130;13.658;2023-05-07T00:02:50;99725.16;;;7.39;100.00
76732;BME280;65656;51.130;13.658;2023-05-07T00:06:52;99730.59;;;7.39;100.00
76732;BME280;65656;51.130;13.658;2023-05-07T00:10:54;99727.72;;;7.34;100.00
76732;BME280;65656;51.130;13.658;2023-05-07T00:14:55;99735.91;;;7.34;100.00
76732;BME280;65656;51.130;13.658;2023-05-07T00:18:58;99730.69;;;7.32;100.00
76732;BME280;65656;51.130;13.658;2023-05-07T00:22:59;99721.47;;;7.26;100.00
76732;BME280;65656;51.130;13.658;2023-05-07T00:27:01;99732.38;;;7.26;100.00
76732;BME280;65656;51.130;13.658;2023-05-07T00:31:02;99736.97;;;7.33;100.00
76732;BME280;65656;51.130;13.658;2023-05-07T00:35:07;99725.28;;;7.25;100.00
76732;BME280;65656;51.130;13.658;2023-05-07T00:39:09;99733.59;;;7.31;100.00
76732;BME280;65656;51.130;13.658;2023-05-07T00:43:10;99733.59;;;7.31;100.00
76732;BME280;65656;51.130;13.658;2023-05-07T00:47:12;99723.31;;;7.33;100.00
76732;BME280;65656;51.130;13.658;2023-05-07T00:51:16;99730.25;;;7.29;100.00
76732;BME280;65656;51.130;13.658;2023-05-07T00:55:18;99729.38;;;7.35;100.00
76732;BME280;65656;51.130;13.658;2023-05-07T00:59:20;99726.47;;;7.30;100.00
76732;BME280;65656;51.130;13.658;2023-05-07T01:03:21;99728.97;;;7.31;100.00
76732;BME280;65656;51.130;13.658;2023-05-07T01:07:25;99725.00;;;7.34;100.00
76732;BME280;65656;51.130;13.658;2023-05-07T01:11:26;99723.31;;;7.33;100.00
76732;BME280;65656;51.130;13.658;2023-05-07T01:15:28;99734.44;;;7.31;100.00
76732;BME280;65656;51.130;13.658;2023-05-07T01:19:31;99734.22;;;7.33;100.00
76732;BME280;65656;51.130;13.658;2023-05-07T01:23:34;99733.00;;;7.29;100.00
76732;BME280;65656;51.130;13.658;2023-05-07T01:27:35;99736.53;;;7.29;100.00
76732;BME280;65656;51.130;13.658;2023-05-07T01:31:37;99730.25;;;7.29;100.00
76732;BME280;65656;51.130;13.658;2023-05-07T01:35:41;99739.03;;;7.31;100.00
76732;BME280;65656;51.130;13.658;2023-05-07T01:39:46;99731.94;;;7.30;100.00
76732;BME280;65656;51.130;13.658;2023-05-07T01:43:50;99746.63;;;7.29;100.00
76732;BME280;65656;51.130;13.658;2023-05-07T01:47:52;99743.66;;;7.30;100.00
76732;BME280;65656;51.130;13.658;2023-05-07T01:51:54;99732.56;;;7.32;100.00
76732;BME280;65656;51.130;13.658;2023-05-07T01:55:57;99733.22;;;7.27;100.00
76732;BME280;65656;51.130;13.658;2023-05-07T01:59:59;99738.66;;;7.27;100.00
76732;BME280;65656;51.130;13.658;2023-05-07T02:04:00;99732.81;;;7.23;100.00
76732;BME280;65656;51.130;13.658;2023-05-07T02:08:02;99738.25;;;7.23;100.00
76732;BME280;65656;51.130;13.658;2023-05-07T02:12:05;99742.03;;;7.22;100.00
76732;BME280;65656;51.130;13.658;2023-05-07T02:16:07;99741.88;;;7.17;100.00
76732;BME280;65656;51.130;13.658;2023-05-07T02:20:09;99739.16;;;7.17;100.00
76732;BME280;65656;51.130;13.658;2023-05-07T02:24:11;99751.72;;;7.18;100.00
76732;BME280;65656;51.130;13.658;2023-05-07T02:28:13;99754.44;;;7.18;100.00
76732;BME280;65656;51.130;13.658;2023-05-07T02:32:15;99752.78;;;7.17;100.00
76732;BME280;65656;51.130;13.658;2023-05-07T02:36:17;99749.88;;;7.12;100.00
76732;BME280;65656;51.130;13.658;2023-05-07T02:40:18;99749.88;;;7.12;100.00
76732;BME280;65656;51.130;13.658;2023-05-07T02:44:21;99757.59;;;7.15;100.00
76732;BME280;65656;51.130;13.658;2023-05-07T02:48:23;99765.59;;;7.17;100.00
76732;BME280;65656;51.130;13.658;2023-05-07T02:52:24;99748.47;;;7.03;100.00
76732;BME280;65656;51.130;13.658;2023-05-07T02:56:26;99755.59;;;7.04;100.00
76732;BME280;65656;51.130;13.658;2023-05-07T03:00:29;99760.59;;;7.07;100.00
76732;BME280;65656;51.130;13.658;2023-05-07T03:04:30;99762.69;;;7.05;100.00
76732;BME280;65656;51.130;13.658;2023-05-07T03:08:32;99743.91;;;6.97;100.00
76732;BME280;65656;51.130;13.658;2023-05-07T03:12:34;99755.59;;;7.04;100.00
76732;BME280;65656;51.130;13.658;2023-05-07T03:16:37;99761.03;;;7.04;100.00
76732;BME280;65656;51.130;13.658;2023-05-07T03:20:39;99760.44;;;7.02;100.00
76732;BME280;65656;51.130;13.658;2023-05-07T03:24:40;99762.75;;;6.98;100.00
76732;BME280;65656;51.130;13.658;2023-05-07T03:28:42;99757.97;;;6.94;100.00
76732;BME280;65656;51.130;13.658;2023-05-07T03:32:44;99756.91;;;6.95;100.00
76732;BME280;65656;51.130;13.658;2023-05-07T03:36:46;99767.81;;;6.95;100.00
76732;BME280;65656;51.130;13.658;2023-05-07T03:40:47;99764.47;;;6.93;100.00
76732;BME280;65656;51.130;13.658;2023-05-07T03:44:49;99764.88;;;6.90;100.00
76732;BME280;65656;51.130;13.658;2023-05-07T03:48:52;99771.41;;;6.82;100.00
76732;BME280;65656;51.130;13.658;2023-05-07T03:52:53;99776.66;;;6.84;100.00
76732;BME280;65656;51.130;13.658;2023-05-07T03:56:55;99767.44;;;6.85;100.00
76732;BME280;65656;51.130;13.658;2023-05-07T04:00:56;99770.78;;;6.87;100.00
76732;BME280;65656;51.130;13.658;2023-05-07T04:04:59;99773.91;;;6.84;100.00
76732;BME280;65656;51.130;13.658;2023-05-07T04:09:01;99778.28;;;6.91;100.00
76732;BME280;65656;51.130;13.658;2023-05-07T04:13:02;99773.47;;;6.93;100.00
76732;BME280;65656;51.130;13.658;2023-05-07T04:17:04;99774.09;;;6.95;100.00
76732;BME280;65656;51.130;13.658;2023-05-07T04:21:13;99783.09;;;6.96;100.00
76732;BME280;65656;51.130;13.658;2023-05-07T04:25:15;99780.38;;;6.96;100.00
76732;BME280;65656;51.130;13.658;2023-05-07T04:29:17;99798.72;;;7.07;100.00
76732;BME280;65656;51.130;13.658;2023-05-07T04:33:18;99799.19;;;7.04;100.00
76732;BME280;65656;51.130;13.658;2023-05-07T04:37:21;99798.16;;;6.98;100.00
76732;BME280;65656;51.130;13.658;2023-05-07T04:41:23;99810.78;;;6.93;100.00
76732;BME280;65656;51.130;13.658;2023-05-07T04:45:24;99810.94;;;6.98;100.00
76732;BME280;65656;51.130;13.658;2023-05-07T04:49:26;99821.41;;;7.01;100.00
76732;BME280;65656;51.130;13.658;2023-05-07T04:53:29;99812.81;;;7.04;100.00
76732;BME280;65656;51.130;13.658;2023-05-07T04:57:30;99812.53;;;7.12;100.00
76732;BME280;65656;51.130;13.658;2023-05-07T05:01:32;99824.28;;;7.13;100.00
76732;BME280;65656;51.130;13.658;2023-05-07T05:05:33;99827.22;;;7.11;100.00
76732;BME280;65656;51.130;13.658;2023-05-07T05:09:36;99834.34;;;7.12;100.00
76732;BME280;65656;51.130;13.658;2023-05-07T05:13:38;99822.34;;;7.20;100.00
76732;BME280;65656;51.130;13.658;2023-05-07T05:17:39;99826.38;;;7.17;100.00
76732;BME280;65656;51.130;13.658;2023-05-07T05:21:41;99822.59;;;7.18;100.00
76732;BME280;65656;51.130;13.658;2023-05-07T05:25:43;99826.38;;;7.17;100.00
76732;BME280;65656;51.130;13.658;2023-05-07T05:29:45;99825.06;;;7.26;100.00
76732;BME280;65656;51.130;13.658;2023-05-07T05:33:46;99826.28;;;7.31;100.00
76732;BME280;65656;51.130;13.658;2023-05-07T05:37:48;99844.22;;;7.45;100.00
76732;BME280;65656;51.130;13.658;2023-05-07T05:41:51;99849.59;;;7.58;100.00
76732;BME280;65656;51.130;13.658;2023-05-07T05:45:52;99852.13;;;7.53;100.00
76732;BME280;65656;51.130;13.658;2023-05-07T05:49:54;99856.00;;;7.39;100.00
76732;BME280;65656;51.130;13.658;2023-05-07T05:53:55;99858.91;;;7.44;100.00
76732;BME280;65656;51.130;13.658;2023-05-07T05:57:58;99853.50;;;7.37;100.00
76732;BME280;65656;51.130;13.658;2023-05-07T06:02:00;99868.97;;;7.43;100.00
76732;BME280;65656;51.130;13.658;2023-05-07T06:06:01;99865.19;;;7.44;100.00
76732;BME280;65656;51.130;13.658;2023-05-07T06:10:04;99871.84;;;7.55;100.00
76732;BME280;65656;51.130;13.658;2023-05-07T06:14:07;99878.97;;;7.56;100.00
76732;BME280;65656;51.130;13.658;2023-05-07T06:18:08;99897.09;;;7.37;100.00
76732;BME280;65656;51.130;13.658;2023-05-07T06:22:10;99892.06;;;7.41;100.00
76732;BME280;65656;51.130;13.658;2023-05-07T06:26:11;99887.41;;;7.48;100.00
76732;BME280;65656;51.130;13.658;2023-05-07T06:30:14;99883.00;;;7.47;100.00
76732;BME280;65656;51.130;13.658;2023-05-07T06:34:16;99883.63;;;7.49;100.00
76732;BME280;65656;51.130;13.658;2023-05-07T06:38:17;99887.41;;;7.48;100.00
76732;BME280;65656;51.130;13.658;2023-05-07T06:42:19;99889.31;;;7.47;100.00
76732;BME280;65656;51.130;13.658;2023-05-07T06:46:22;99902.09;;;7.47;100.00
76732;BME280;65656;51.130;13.658;2023-05-07T06:50:23;99907.91;;;7.57;100.00
76732;BME280;65656;51.130;13.658;2023-05-07T06:54:25;99912.13;;;7.53;100.00
76732;BME280;65656;51.130;13.658;2023-05-07T06:58:26;99910.13;;;7.35;100.00
76732;BME280;65656;51.130;13.658;2023-05-07T07:02:29;99920.19;;;7.35;100.00
76732;BME280;65656;51.130;13.658;2023-05-07T07:06:31;99921.88;;;7.36;100.00
76732;BME280;65656;51.130;13.658;2023-05-07T07:10:33;99914.97;;;7.33;100.00
76732;BME280;65656;51.130;13.658;2023-05-07T07:14:34;99917.66;;;7.40;100.00
76732;BME280;65656;51.130;13.658;2023-05-07T07:18:37;99906.41;;;7.61;100.00
76732;BME280;65656;51.130;13.658;2023-05-07T07:22:39;99915.84;;;7.65;100.00
76732;BME280;65656;51.130;13.658;2023-05-07T07:26:40;99918.34;;;7.67;100.00
76732;BME280;65656;51.130;13.658;2023-05-07T07:30:42;99920.16;;;7.79;100.00
76732;BME280;65656;51.130;13.658;2023-05-07T07:34:45;99920.06;;;7.93;100.00
76732;BME280;65656;51.130;13.658;2023-05-07T07:38:46;99918.91;;;8.07;100.00
76732;BME280;65656;51.130;13.658;2023-05-07T07:42:48;99929.63;;;8.33;100.00
76732;BME280;65656;51.130;13.658;2023-05-07T07:46:49;99935.31;;;8.00;100.00
76732;BME280;65656;51.130;13.658;2023-05-07T07:50:52;99924.84;;;7.97;99.22
76732;BME280;65656;51.130;13.658;2023-05-07T07:54:54;99932.44;;;7.95;99.74
76732;BME280;65656;51.130;13.658;2023-05-07T07:58:55;99932.47;;;7.89;100.00
76732;BME280;65656;51.130;13.658;2023-05-07T08:02:57;99949.19;;;7.99;100.00
76732;BME280;65656;51.130;13.658;2023-05-07T08:07:00;99942.50;;;7.95;100.00
76732;BME280;65656;51.130;13.658;2023-05-07T08:11:01;99944.41;;;7.94;100.00
76732;BME280;65656;51.130;13.658;2023-05-07T08:15:03;99954.91;;;7.91;100.00
76732;BME280;65656;51.130;13.658;2023-05-07T08:19:05;99951.38;;;7.83;99.65
76732;BME280;65656;51.130;13.658;2023-05-07T08:23:08;99955.75;;;7.91;100.00
76732;BME280;65656;51.130;13.658;2023-05-07T08:27:09;99966.00;;;7.96;100.00
76732;BME280;65656;51.130;13.658;2023-05-07T08:31:11;99965.28;;;8.38;100.00
76732;BME280;65656;51.130;13.658;2023-05-07T08:35:12;99959.03;;;8.31;97.14
76732;BME280;65656;51.130;13.658;2023-05-07T08:39:16;99953.94;;;8.42;98.56
76732;BME280;65656;51.130;13.658;2023-05-07T08:43:18;99959.06;;;8.25;98.74
76732;BME280;65656;51.130;13.658;2023-05-07T08:47:22;99957.34;;;8.30;99.98
76732;BME280;65656;51.130;13.658;2023-05-07T08:51:24;99955.72;;;8.23;100.00
76732;BME280;65656;51.130;13.658;2023-05-07T08:55:28;99972.78;;;8.18;100.00
76732;BME280;65656;51.130;13.658;2023-05-07T08:59:30;99966.84;;;8.28;100.00
76732;BME280;65656;51.130;13.658;2023-05-07T09:03:31;99984.94;;;8.22;99.62
76732;BME280;65656;51.130;13.658;2023-05-07T09:07:33;99972.59;;;8.45;99.80
76732;BME280;65656;51.130;13.658;2023-05-07T09:11:36;99979.19;;;8.30;98.33
76732;BME280;65656;51.130;13.658;2023-05-07T09:15:38;99985.47;;;8.37;99.36
76732;BME280;65656;51.130;13.658;2023-05-07T09:19:39;99986.72;;;8.42;100.00
76732;BME280;65656;51.130;13.658;2023-05-07T09:23:41;99999.81;;;8.26;100.00
76732;BME280;65656;51.130;13.658;2023-05-07T09:27:44;100003.09;;;8.42;99.12
76732;BME280;65656;51.130;13.658;2023-05-07T09:31:46;99995.84;;;8.54;99.13
76732;BME280;65656;51.130;13.658;2023-05-07T09:35:50;99993.72;;;8.56;99.49
76732;BME280;65656;51.130;13.658;2023-05-07T09:39:52;99997.34;;;8.18;97.88
76732;BME280;65656;51.130;13.658;2023-05-07T09:43:56;100009.94;;;8.19;99.30
76732;BME280;65656;51.130;13.658;2023-05-07T09:47:58;99996.69;;;8.23;97.43
76732;BME280;65656;51.130;13.658;2023-05-07T09:52:01;99996.81;;;8.41;96.74
76732;BME280;65656;51.130;13.658;2023-05-07T09:56:03;99996.63;;;8.61;95.26
76732;BME280;65656;51.130;13.658;2023-05-07T10:00:08;100000.31;;;8.48;95.88
76732;BME280;65656;51.130;13.658;2023-05-07T10:04:11;100007.22;;;8.51;95.77
76732;BME280;65656;51.130;13.658;2023-05-07T10:08:13;99998.53;;;8.35;96.38
76732;BME280;65656;51.130;13.658;2023-05-07T10:12:15;100005.09;;;8.53;97.58
76732;BME280;65656;51.130;13.658;2023-05-07T10:16:18;100004.72;;;8.74;97.41
76732;BME280;65656;51.130;13.658;2023-05-07T10:20:20;100000.88;;;8.57;95.21
76732;BME280;65656;51.130;13.658;2023-05-07T10:24:25;100000.50;;;8.97;94.32
76732;BME280;65656;51.130;13.658;2023-05-07T10:28:29;100010.13;;;9.42;92.18
76732;BME280;65656;51.130;13.658;2023-05-07T10:32:38;100010.81;;;8.94;93.74
76732;BME280;65656;51.130;13.658;2023-05-07T10:36:40;100006.00;;;9.33;93.95
76732;BME280;65656;51.130;13.658;2023-05-07T10:40:43;100008.13;;;9.31;92.58
76732;BME280;65656;51.130;13.658;2023-05-07T10:44:48;100007.31;;;9.97;90.47
76732;BME280;65656;51.130;13.658;2023-05-07T10:49:10;99985.41;;;10.27;87.96
76732;BME280;65656;51.130;13.658;2023-05-07T10:53:22;100003.19;;;10.48;87.39
76732;BME280;65656;51.130;13.658;2023-05-07T10:57:33;99994.13;;;9.76;87.41
76732;BME280;65656;51.130;13.658;2023-05-07T11:01:50;100000.09;;;9.85;89.01
76732;BME280;65656;51.130;13.658;2023-05-07T11:06:13;99990.34;;;10.19;87.65
76732;BME280;65656;51.130;13.658;2023-05-07T11:10:15;99998.09;;;10.22;86.65
76732;BME280;65656;51.130;13.658;2023-05-07T11:14:42;99986.78;;;10.72;86.93
76732;BME280;65656;51.130;13.658;2023-05-07T11:18:48;99987.88;;;11.06;83.82
76732;BME280;65656;51.130;13.658;2023-05-07T11:22:51;99984.59;;;11.44;81.84
76732;BME280;65656;51.130;13.658;2023-05-07T11:26:55;99991.50;;;10.41;85.12
76732;BME280;65656;51.130;13.658;2023-05-07T11:30:57;99987.78;;;10.24;83.00
76732;BME280;65656;51.130;13.658;2023-05-07T11:34:59;99986.88;;;10.65;84.04
76732;BME280;65656;51.130;13.658;2023-05-07T11:39:02;99975.81;;;10.72;85.42
76732;BME280;65656;51.130;13.658;2023-05-07T11:43:10;99982.03;;;10.79;83.68
76732;BME280;65656;51.130;13.658;2023-05-07T11:47:17;99987.22;;;10.45;82.96
76732;BME280;65656;51.130;13.658;2023-05-07T11:51:19;99985.00;;;10.77;84.14
76732;BME280;65656;51.130;13.658;2023-05-07T11:55:24;99986.31;;;10.98;84.24
76732;BME280;65656;51.130;13.658;2023-05-07T11:59:25;100008.41;;;10.38;85.05
76732;BME280;65656;51.130;13.658;2023-05-07T12:03:27;100000.59;;;10.53;86.34
76732;BME280;65656;51.130;13.658;2023-05-07T12:07:33;99998.19;;;10.45;85.24
76732;BME280;65656;51.130;13.658;2023-05-07T12:11:36;99996.81;;;10.78;85.77
76732;BME280;65656;51.130;13.658;2023-05-07T12:15:37;99990.31;;;10.49;83.93
76732;BME280;65656;51.130;13.658;2023-05-07T12:19:40;99995.78;;;10.37;85.18
76732;BME280;65656;51.130;13.658;2023-05-07T12:23:42;99997.50;;;10.62;85.53
76732;BME280;65656;51.130;13.658;2023-05-07T12:27:51;100000.09;;;10.56;85.21
76732;BME280;65656;51.130;13.658;2023-05-07T12:31:53;100009.66;;;10.66;83.94
76732;BME280;65656;51.130;13.658;2023-05-07T12:35:55;100007.16;;;10.64;83.73
76732;BME280;65656;51.130;13.658;2023-05-07T12:40:07;100014.56;;;10.75;85.11
76732;BME280;65656;51.130;13.658;2023-05-07T12:44:10;100011.09;;;10.68;82.88
76732;BME280;65656;51.130;13.658;2023-05-07T12:48:12;100010.16;;;11.09;82.51
76732;BME280;65656;51.130;13.658;2023-05-07T12:52:14;100000.94;;;11.27;82.08
76732;BME280;65656;51.130;13.658;2023-05-07T12:56:15;99994.47;;;11.57;81.39
76732;BME280;65656;51.130;13.658;2023-05-07T13:00:32;99994.38;;;11.40;80.12
76732;BME280;65656;51.130;13.658;2023-05-07T13:04:34;99995.53;;;11.67;81.17
76732;BME280;65656;51.130;13.658;2023-05-07T13:08:37;99997.88;;;11.76;79.96
76732;BME280;65656;51.130;13.658;2023-05-07T13:12:39;99983.00;;;12.00;77.23
76732;BME280;65656;51.130;13.658;2023-05-07T13:16:42;99996.25;;;12.65;78.88
76732;BME280;65656;51.130;13.658;2023-05-07T13:20:43;99984.72;;;12.68;76.87
76732;BME280;65656;51.130;13.658;2023-05-07T13:24:45;99986.22;;;13.09;75.48
76732;BME280;65656;51.130;13.658;2023-05-07T13:28:46;99976.91;;;14.84;72.30
76732;BME280;65656;51.130;13.658;2023-05-07T13:32:49;99974.66;;;14.17;71.92
76732;BME280;65656;51.130;13.658;2023-05-07T13:36:51;99979.75;;;12.65;74.59
76732;BME280;65656;51.130;13.658;2023-05-07T13:40:52;99974.16;;;12.94;73.72
76732;BME280;65656;51.130;13.658;2023-05-07T13:44:54;99973.53;;;13.25;73.45
76732;BME280;65656;51.130;13.658;2023-05-07T13:48:57;99975.13;;;12.20;76.08
76732;BME280;65656;51.130;13.658;2023-05-07T13:52:58;99974.94;;;12.55;77.34
76732;BME280;65656;51.130;13.658;2023-05-07T13:56:59;99975.41;;;12.36;78.56
76732;BME280;65656;51.130;13.658;2023-05-07T14:01:01;99975.13;;;12.20;76.34
76732;BME280;65656;51.130;13.658;2023-05-07T14:05:05;99971.00;;;12.35;76.91
76732;BME280;65656;51.130;13.658;2023-05-07T14:09:07;99984.03;;;12.11;76.75
76732;BME280;65656;51.130;13.658;2023-05-07T14:13:08;99979.53;;;11.64;78.58
76732;BME280;65656;51.130;13.658;2023-05-07T14:17:10;99973.56;;;12.24;77.00
76732;BME280;65656;51.130;13.658;2023-05-07T14:21:13;99976.31;;;11.96;78.75
76732;BME280;65656;51.130;13.658;2023-05-07T14:25:14;99971.41;;;11.69;79.48
76732;BME280;65656;51.130;13.658;2023-05-07T14:29:16;99970.75;;;11.39;79.53
76732;BME280;65656;51.130;13.658;2023-05-07T14:33:18;99971.28;;;11.64;80.49
76732;BME280;65656;51.130;13.658;2023-05-07T14:37:20;99966.31;;;11.90;80.32
76732;BME280;65656;51.130;13.658;2023-05-07T14:41:22;99956.47;;;11.37;78.85
76732;BME280;65656;51.130;13.658;2023-05-07T14:45:23;99971.34;;;11.53;78.93
76732;BME280;65656;51.130;13.658;2023-05-07T14:49:25;99966.28;;;11.09;81.76
76732;BME280;65656;51.130;13.658;2023-05-07T14:53:28;99966.16;;;11.16;80.52
76732;BME280;65656;51.130;13.658;2023-05-07T14:57:30;99976.31;;;11.96;77.87
76732;BME280;65656;51.130;13.658;2023-05-07T15:01:34;99985.72;;;12.28;79.35
76732;BME280;65656;51.130;13.658;2023-05-07T15:05:37;99980.31;;;11.77;78.60
76732;BME280;65656;51.130;13.658;2023-05-07T15:09:40;99979.41;;;12.45;76.85
76732;BME280;65656;51.130;13.658;2023-05-07T15:13:42;99987.94;;;11.46;79.10
76732;BME280;65656;51.130;13.658;2023-05-07T15:17:43;99988.09;;;11.16;80.87
76732;BME280;65656;51.130;13.658;2023-05-07T15:21:45;99990.59;;;11.29;80.50
76732;BME280;65656;51.130;13.658;2023-05-07T15:25:48;99980.94;;;11.67;80.95
76732;BME280;65656;51.130;13.658;2023-05-07T15:29:52;99975.63;;;11.49;81.53
76732;BME280;65656;51.130;13.658;2023-05-07T15:33:54;99983.66;;;11.27;80.21
76732;BME280;65656;51.130;13.658;2023-05-07T15:37:55;99997.03;;;10.88;81.71
76732;BME280;65656;51.130;13.658;2023-05-07T15:41:58;100005.50;;;10.86;82.84
76732;BME280;65656;51.130;13.658;2023-05-07T15:46:00;100008.25;;;10.75;82.16
76732;BME280;65656;51.130;13.658;2023-05-07T15:50:02;100009.66;;;10.66;83.26
76732;BME280;65656;51.130;13.658;2023-05-07T15:54:04;100013.56;;;10.46;84.21
76732;BME280;65656;51.130;13.658;2023-05-07T15:58:06;100002.47;;;10.41;84.00
76732;BME280;65656;51.130;13.658;2023-05-07T16:02:08;100014.16;;;10.48;84.76
76732;BME280;65656;51.130;13.658;2023-05-07T16:06:09;100005.97;;;10.95;83.36
76732;BME280;65656;51.130;13.658;2023-05-07T16:10:11;100006.94;;;10.77;82.83
76732;BME280;65656;51.130;13.658;2023-05-07T16:14:14;100002.25;;;10.13;83.06
76732;BME280;65656;51.130;13.658;2023-05-07T16:18:15;100010.25;;;9.96;83.69
76732;BME280;65656;51.130;13.658;2023-05-07T16:22:17;100003.50;;;9.98;83.94
76732;BME280;65656;51.130;13.658;2023-05-07T16:26:18;100010.06;;;9.79;84.39
76732;BME280;65656;51.130;13.658;2023-05-07T16:30:21;100013.50;;;9.74;85.77
76732;BME280;65656;51.130;13.658;2023-05-07T16:34:23;100022.09;;;9.60;83.76
76732;BME280;65656;51.130;13.658;2023-05-07T16:38:24;100025.16;;;9.52;85.59
76732;BME280;65656;51.130;13.658;2023-05-07T16:42:26;100019.97;;;9.62;85.99
76732;BME280;65656;51.130;13.658;2023-05-07T16:46:29;100027.28;;;9.49;85.52
76732;BME280;65656;51.130;13.658;2023-05-07T16:50:31;100023.50;;;9.51;87.18
76732;BME280;65656;51.130;13.658;2023-05-07T16:54:34;100025.22;;;9.45;86.72
76732;BME280;65656;51.130;13.658;2023-05-07T16:58:35;100021.13;;;9.36;85.87
76732;BME280;65656;51.130;13.658;2023-05-07T17:02:38;100026.06;;;9.27;84.64
76732;BME280;65656;51.130;13.658;2023-05-07T17:06:40;100025.13;;;9.15;86.54
76732;BME280;65656;51.130;13.658;2023-05-07T17:10:42;100045.69;;;9.17;86.14
76732;BME280;65656;51.130;13.658;2023-05-07T17:14:43;100036.34;;;9.07;86.05
76732;BME280;65656;51.130;13.658;2023-05-07T17:18:46;100050.13;;;8.93;87.24
76732;BME280;65656;51.130;13.658;2023-05-07T17:22:47;100052.50;;;8.65;87.04
76732;BME280;65656;51.130;13.658;2023-05-07T17:26:49;100045.47;;;8.51;87.39
76732;BME280;65656;51.130;13.658;2023-05-07T17:30:50;100047.59;;;8.49;87.67
76732;BME280;65656;51.130;13.658;2023-05-07T17:34:53;100059.81;;;8.40;88.45
76732;BME280;65656;51.130;13.658;2023-05-07T17:38:55;100056.03;;;8.41;87.30
76732;BME280;65656;51.130;13.658;2023-05-07T17:42:56;100061.94;;;8.31;86.94
76732;BME280;65656;51.130;13.658;2023-05-07T17:47:00;100060.13;;;8.18;86.95
76732;BME280;65656;51.130;13.658;2023-05-07T17:51:03;100059.16;;;8.06;87.72
76732;BME280;65656;51.130;13.658;2023-05-07T17:55:05;100068.75;;;8.15;86.85
76732;BME280;65656;51.130;13.658;2023-05-07T17:59:07;100057.97;;;7.89;88.53
76732;BME280;65656;51.130;13.658;2023-05-07T18:03:08;100058.84;;;7.82;89.06
76732;BME280;65656;51.130;13.658;2023-05-07T18:07:11;100066.81;;;7.77;88.63
76732;BME280;65656;51.130;13.658;2023-05-07T18:11:13;100058.03;;;7.75;88.07
76732;BME280;65656;51.130;13.658;2023-05-07T18:15:15;100065.22;;;7.63;89.46
76732;BME280;65656;51.130;13.658;2023-05-07T18:19:16;100074.88;;;7.59;89.25
76732;BME280;65656;51.130;13.658;2023-05-07T18:23:19;100074.84;;;7.66;88.41
76732;BME280;65656;51.130;13.658;2023-05-07T18:27:20;100079.97;;;7.36;90.74
76732;BME280;65656;51.130;13.658;2023-05-07T18:31:22;100086.72;;;7.26;90.90
76732;BME280;65656;51.130;13.658;2023-05-07T18:35:23;100083.75;;;7.35;90.15
76732;BME280;65656;51.130;13.658;2023-05-07T18:39:26;100095.53;;;7.09;91.99
76732;BME280;65656;51.130;13.658;2023-05-07T18:43:28;100102.84;;;7.21;90.57
76732;BME280;65656;51.130;13.658;2023-05-07T18:47:29;100111.47;;;7.18;90.33
76732;BME280;65656;51.130;13.658;2023-05-07T18:51:31;100103.50;;;7.10;91.07
76732;BME280;65656;51.130;13.658;2023-05-07T18:55:34;100120.47;;;6.99;91.79
76732;BME280;65656;51.130;13.658;2023-05-07T18:59:35;100112.09;;;6.94;92.00
76732;BME280;65656;51.130;13.658;2023-05-07T19:03:37;100121.53;;;6.85;92.86
76732;BME280;65656;51.130;13.658;2023-05-07T19:07:38;100122.78;;;7.02;91.10
76732;BME280;65656;51.130;13.658;2023-05-07T19:11:41;100116.91;;;6.85;92.09
76732;BME280;65656;51.130;13.658;2023-05-07T19:15:42;100115.88;;;6.93;91.60
76732;BME280;65656;51.130;13.658;2023-05-07T19:19:44;100111.88;;;6.76;93.05
76732;BME280;65656;51.130;13.658;2023-05-07T19:23:45;100126.94;;;6.65;93.51
76732;BME280;65656;51.130;13.658;2023-05-07T19:27:48;100127.34;;;6.49;94.10
76732;BME280;65656;51.130;13.658;2023-05-07T19:31:50;100133.78;;;6.34;95.61
76732;BME280;65656;51.130;13.658;2023-05-07T19:35:51;100136.72;;;6.33;95.79
76732;BME280;65656;51.130;13.658;2023-05-07T19:39:53;100133.25;;;6.04;97.77
76732;BME280;65656;51.130;13.658;2023-05-07T19:43:56;100141.75;;;5.88;99.16
76732;BME280;65656;51.130;13.658;2023-05-07T19:47:58;100150.69;;;5.82;99.04
76732;BME280;65656;51.130;13.658;2023-05-07T19:51:59;100151.06;;;6.00;97.61
76732;BME280;65656;51.130;13.658;2023-05-07T19:56:03;100150.88;;;6.08;97.07
76732;BME280;65656;51.130;13.658;2023-05-07T20:00:07;100160.72;;;6.09;97.53
76732;BME280;65656;51.130;13.658;2023-05-07T20:04:09;100161.75;;;5.74;99.15
76732;BME280;65656;51.130;13.658;2023-05-07T20:08:10;100170.56;;;5.76;98.99
76732;BME280;65656;51.130;13.658;2023-05-07T20:12:12;100172.94;;;5.57;99.63
76732;BME280;65656;51.130;13.658;2023-05-07T20:16:14;100179.47;;;5.35;100.00
76732;BME280;65656;51.130;13.658;2023-05-07T20:20:16;100182.19;;;5.35;100.00
76732;BME280;65656;51.130;13.658;2023-05-07T20:24:18;100184.53;;;5.38;100.00
76732;BME280;65656;51.130;13.658;2023-05-07T20:28:19;100194.09;;;5.34;100.00
76732;BME280;65656;51.130;13.658;2023-05-07T20:32:22;100189.06;;;5.31;100.00
76732;BME280;65656;51.130;13.658;2023-05-07T20:36:24;100190.41;;;5.14;100.00
76732;BME280;65656;51.130;13.658;2023-05-07T20:40:25;100199.25;;;5.50;100.00
76732;BME280;65656;51.130;13.658;2023-05-07T20:44:27;100197.81;;;5.26;100.00
76732;BME280;65656;51.130;13.658;2023-05-07T20:48:30;100199.53;;;5.34;100.00
76732;BME280;65656;51.130;13.658;2023-05-07T20:52:31;100200.03;;;5.44;99.32
76732;BME280;65656;51.130;13.658;2023-05-07T20:56:33;100202.88;;;5.36;99.90
76732;BME280;65656;51.130;13.658;2023-05-07T21:00:34;100201.47;;;5.40;99.39
76732;BME280;65656;51.130;13.658;2023-05-07T21:04:37;100209.16;;;5.37;99.82
76732;BME280;65656;51.130;13.658;2023-05-07T21:08:39;100207.94;;;5.39;99.26